Schley, Minnesota
Current Conditions -  °F | °C
As of 10:15 PM on Wednesday 28 Jan 2015 (Local Time) from KY49 Reporting Station
Light Rain Light Rain  
Wind Chill: 26°   Ceiling: 500
Heat Index: 32°   Visibility: 3mi
Dew Point: 31°   Wind: 6mph
Humidity: 97%   Direction: 310°NW
Pressure: 29.85"   Gusts: NA
Location:  47.3012°N, 94.5426°W
Report Text: KY49 290415Z AUTO 31005KT 3SM -RA OVC005 00/M01 A2985 RMK AO2 T10021006
Loading
Personal Weather Stations






























Interactive Weather Map New forecast layout! Learn more

10-Day Weather Forecast

Advertisements
Track Severe Weather on mobile